Time;durP1;ratioP1;P1;durP2;ratioP2;P2;SDS_P1;SDS_P2;PMS_P1;PMS_P2;Temp;Humidity;BMP_temperature;BMP_pressure;BME280_temperature;BME280_humidity;BME280_pressure;Samples;Min_cycle;Max_cycle;Signal;HPM_P1;HPM_P2
2023/10/18 00:00:57;;;;;;;14.03;13.53;;;8.10;99.90;;;;;;5013743;28;20587;-65
2023/10/18 00:03:25;;;;;;;14.70;14.20;;;8.20;99.90;;;;;;5013272;28;20694;-65
2023/10/18 00:05:52;;;;;;;14.53;14.03;;;8.20;99.90;;;;;;5013350;28;20240;-67
2023/10/18 00:08:19;;;;;;;13.77;13.27;;;8.20;99.90;;;;;;5013637;28;20292;-64
2023/10/18 00:10:46;;;;;;;14.20;13.70;;;8.20;99.90;;;;;;5012788;28;20236;-64
2023/10/18 00:13:13;;;;;;;14.00;13.50;;;8.20;99.90;;;;;;5018312;28;20213;-67
2023/10/18 00:15:39;;;;;;;14.70;14.20;;;8.20;99.90;;;;;;5013060;28;20207;-64
2023/10/18 00:18:06;;;;;;;14.23;13.73;;;8.20;99.90;;;;;;5012855;28;20217;-64
2023/10/18 00:20:33;;;;;;;14.00;13.50;;;8.20;99.90;;;;;;5012912;28;20213;-66
2023/10/18 00:23:01;;;;;;;13.90;13.40;;;8.20;99.90;;;;;;5012666;28;20216;-65
2023/10/18 00:25:28;;;;;;;14.43;13.93;;;8.30;99.90;;;;;;5012508;28;20291;-64
2023/10/18 00:27:54;;;;;;;15.07;14.47;;;8.30;99.90;;;;;;5012405;28;20236;-64
2023/10/18 00:30:21;;;;;;;14.70;14.20;;;8.30;99.90;;;;;;5012857;28;20236;-64
2023/10/18 00:32:48;;;;;;;14.35;13.85;;;8.20;99.90;;;;;;5014215;28;20232;-65
2023/10/18 00:35:18;;;;;;;14.33;13.83;;;8.10;99.90;;;;;;5013656;28;20578;-65
2023/10/18 00:37:45;;;;;;;14.37;13.87;;;8.10;99.90;;;;;;5017740;28;20213;-65
2023/10/18 00:40:32;;;;;;;14.45;13.95;;;8.00;99.90;;;;;;5014145;28;20197;-65
2023/10/18 00:43:05;;;;;;;13.90;13.40;;;8.00;99.90;;;;;;5016057;28;20209;-64
2023/10/18 00:45:32;;;;;;;14.05;13.55;;;8.00;99.90;;;;;;5023877;28;20201;-65
2023/10/18 00:48:04;;;;;;;14.25;13.75;;;8.00;99.90;;;;;;5025823;28;20228;-66
2023/10/18 00:50:34;;;;;;;14.20;13.70;;;8.00;99.90;;;;;;5027369;28;20211;-65
2023/10/18 00:53:01;;;;;;;14.60;14.10;;;8.00;99.90;;;;;;5022066;28;20241;-66
2023/10/18 00:55:30;;;;;;;14.27;13.77;;;8.00;99.90;;;;;;5014651;28;20201;-66
2023/10/18 00:58:04;;;;;;;14.97;14.37;;;7.90;99.90;;;;;;5011596;28;20232;-64
2023/10/18 01:00:30;;;;;;;14.52;14.02;;;7.90;99.90;;;;;;5017092;28;20287;-65
2023/10/18 01:02:59;;;;;;;13.97;13.47;;;7.90;99.90;;;;;;5019168;28;20616;-66
2023/10/18 01:05:27;;;;;;;14.20;13.70;;;7.90;99.90;;;;;;5009126;28;20239;-65
2023/10/18 01:07:54;;;;;;;14.43;13.93;;;7.90;99.90;;;;;;5011997;28;20415;-64
2023/10/18 01:10:23;;;;;;;14.00;13.50;;;7.90;99.90;;;;;;5011128;28;20221;-64
2023/10/18 01:12:52;;;;;;;13.90;13.40;;;7.90;99.90;;;;;;5011082;28;20275;-65
2023/10/18 01:15:20;;;;;;;14.13;13.63;;;7.90;99.90;;;;;;5015665;28;20280;-66
2023/10/18 01:17:47;;;;;;;13.98;13.48;;;7.90;99.90;;;;;;5008879;28;20216;-64
2023/10/18 01:20:33;;;;;;;14.70;14.10;;;7.90;99.90;;;;;;5011797;28;20639;-64
2023/10/18 01:23:00;;;;;;;14.50;14.00;;;7.80;99.90;;;;;;5014649;28;20205;-65
2023/10/18 01:25:29;;;;;;;14.47;13.97;;;7.90;99.90;;;;;;5011066;28;20252;-66
2023/10/18 01:27:56;;;;;;;14.87;14.37;;;7.90;99.90;;;;;;5016194;28;20236;-65
2023/10/18 01:30:23;;;;;;;14.77;14.27;;;7.80;99.90;;;;;;5010956;28;20225;-65
2023/10/18 01:32:51;;;;;;;14.93;14.43;;;7.80;99.90;;;;;;5011519;28;20201;-65
2023/10/18 01:35:17;;;;;;;14.87;14.37;;;7.70;99.90;;;;;;5011574;28;20228;-65
2023/10/18 01:37:45;;;;;;;14.85;14.35;;;7.70;99.90;;;;;;5011711;28;20312;-64
2023/10/18 01:40:22;;;;;;;14.98;14.48;;;7.70;99.90;;;;;;5011800;28;20244;-65
2023/10/18 01:42:55;;;;;;;14.85;14.35;;;7.70;99.90;;;;;;5009547;28;20205;-64
2023/10/18 01:45:23;;;;;;;15.77;15.17;;;7.80;99.90;;;;;;5012369;28;20630;-64
2023/10/18 01:47:51;;;;;;;14.90;14.33;;;7.80;99.90;;;;;;5011932;28;20529;-65
2023/10/18 01:50:19;;;;;;;14.97;14.47;;;7.90;99.90;;;;;;5014975;28;20260;-64
2023/10/18 01:52:46;;;;;;;15.25;14.65;;;7.90;99.90;;;;;;5010749;28;20213;-65
2023/10/18 01:55:13;;;;;;;14.23;13.73;;;7.80;99.90;;;;;;5011402;28;20233;-65
2023/10/18 01:57:41;;;;;;;14.00;13.50;;;7.80;99.90;;;;;;5011150;28;20293;-65
2023/10/18 02:00:19;;;;;;;15.90;15.30;;;7.90;99.90;;;;;;5011273;28;20280;-65
2023/10/18 02:02:48;;;;;;;15.30;14.73;;;7.90;99.90;;;;;;5014451;28;20212;-65
2023/10/18 02:05:16;;;;;;;15.57;14.97;;;8.00;99.90;;;;;;5006932;28;20256;-64
2023/10/18 02:07:46;;;;;;;15.45;14.85;;;8.10;99.90;;;;;;5011370;28;20232;-64
2023/10/18 02:10:20;;;;;;;15.77;15.17;;;8.10;99.90;;;;;;5011382;28;20312;-64
2023/10/18 02:12:47;;;;;;;15.77;15.17;;;8.00;99.90;;;;;;5008032;28;20292;-66
2023/10/18 02:15:16;;;;;;;15.47;14.87;;;7.90;99.90;;;;;;5011040;28;20205;-64
2023/10/18 02:17:43;;;;;;;15.00;14.50;;;7.90;99.90;;;;;;5011018;28;20213;-65
2023/10/18 02:20:25;;;;;;;14.97;14.47;;;7.80;99.90;;;;;;5011921;28;20299;-65
2023/10/18 02:22:53;;;;;;;15.13;14.52;;;7.80;99.90;;;;;;5012387;28;20217;-65
2023/10/18 02:25:36;;;;;;;15.35;14.75;;;7.70;99.90;;;;;;5012255;28;20204;-67
2023/10/18 02:28:08;;;;;;;16.27;15.57;;;7.70;99.90;;;;;;5025590;28;20233;-66
2023/10/18 02:30:36;;;;;;;15.53;14.90;;;7.70;99.90;;;;;;5033922;28;20360;-64
2023/10/18 02:33:04;;;;;;;16.37;15.77;;;7.70;99.90;;;;;;5025609;28;20205;-66
2023/10/18 02:35:32;;;;;;;18.02;17.23;;;7.60;99.90;;;;;;5014060;28;20213;-63
2023/10/18 02:38:07;;;;;;;16.70;16.07;;;7.60;99.90;;;;;;5014469;28;20252;-65
2023/10/18 02:40:38;;;;;;;15.90;15.30;;;7.50;99.90;;;;;;5016748;28;20216;-66
2023/10/18 02:43:10;;;;;;;15.45;14.85;;;7.50;99.90;;;;;;5015296;28;20283;-65
2023/10/18 02:45:40;;;;;;;15.20;14.60;;;7.50;99.90;;;;;;5014625;28;20215;-66
2023/10/18 02:48:12;;;;;;;15.37;14.77;;;7.60;99.90;;;;;;5014339;28;20256;-64
2023/10/18 02:50:39;;;;;;;15.60;15.00;;;7.60;99.90;;;;;;5014744;28;20229;-64
2023/10/18 02:53:07;;;;;;;15.32;14.75;;;7.70;99.90;;;;;;5016126;28;20224;-65
2023/10/18 02:55:34;;;;;;;15.70;15.10;;;7.70;99.90;;;;;;5016114;28;20217;-64
2023/10/18 02:58:01;;;;;;;15.57;14.97;;;7.70;99.90;;;;;;5015942;28;20225;-64
2023/10/18 03:00:27;;;;;;;15.57;14.97;;;7.70;99.90;;;;;;5016108;28;20232;-65
2023/10/18 03:02:55;;;;;;;15.37;14.77;;;7.60;99.90;;;;;;5020390;28;20212;-65
2023/10/18 03:05:24;;;;;;;15.00;14.40;;;7.70;99.90;;;;;;5031502;28;20235;-66
2023/10/18 03:07:51;;;;;;;15.00;14.40;;;7.60;99.90;;;;;;5048881;28;20198;-65
2023/10/18 03:10:27;;;;;;;15.60;15.00;;;7.70;99.90;;;;;;5048410;28;20231;-65
2023/10/18 03:12:53;;;;;;;14.53;14.03;;;7.70;99.90;;;;;;5029336;28;20344;-65
2023/10/18 03:15:23;;;;;;;14.88;14.38;;;7.70;99.90;;;;;;5035823;28;20213;-65
2023/10/18 03:17:50;;;;;;;15.03;14.53;;;7.70;99.90;;;;;;5031020;28;20193;-65
2023/10/18 03:20:22;;;;;;;15.07;14.57;;;7.70;99.90;;;;;;5026399;28;20295;-66
2023/10/18 03:22:49;;;;;;;15.45;14.85;;;7.60;99.90;;;;;;5011621;28;20201;-65
2023/10/18 03:25:26;;;;;;;14.52;14.02;;;7.60;99.90;;;;;;5015363;28;20205;-65
2023/10/18 03:27:57;;;;;;;16.23;15.63;;;7.50;99.90;;;;;;5011410;28;20296;-66
2023/10/18 03:30:40;;;;;;;16.50;15.90;;;7.50;99.90;;;;;;5011173;28;20573;-64
2023/10/18 03:33:08;;;;;;;16.60;16.00;;;7.30;99.90;;;;;;5016143;28;20239;-67
2023/10/18 03:35:39;;;;;;;16.05;15.45;;;7.40;99.90;;;;;;5015416;28;20202;-66
2023/10/18 03:38:15;;;;;;;15.55;14.95;;;7.40;99.90;;;;;;5021069;28;20753;-65
2023/10/18 03:40:47;;;;;;;15.93;15.33;;;7.40;99.90;;;;;;5016674;28;20281;-65
2023/10/18 03:43:15;;;;;;;15.53;14.93;;;7.40;99.90;;;;;;5016704;28;20209;-63
2023/10/18 03:48:25;;;;;;;14.65;14.15;;;7.40;99.90;;;;;;5033272;28;20224;-65
2023/10/18 03:51:00;;;;;;;15.57;14.98;;;7.50;99.90;;;;;;5051145;28;20231;-65
2023/10/18 03:53:27;;;;;;;15.60;15.00;;;7.60;99.90;;;;;;5047959;28;20216;-65
2023/10/18 03:55:55;;;;;;;15.20;14.60;;;7.60;99.90;;;;;;5029186;28;20209;-64
2023/10/18 03:58:24;;;;;;;15.63;15.03;;;7.50;99.90;;;;;;5018318;28;20252;-63
2023/10/18 04:00:55;;;;;;;15.60;15.03;;;7.40;99.90;;;;;;5013511;28;20201;-65
2023/10/18 04:03:27;;;;;;;16.90;16.25;;;7.40;99.90;;;;;;5012762;28;20217;-65
2023/10/18 04:05:56;;;;;;;17.85;17.15;;;7.40;99.90;;;;;;5012608;28;20761;-65
2023/10/18 04:08:23;;;;;;;18.73;18.00;;;7.30;99.90;;;;;;5012475;28;20221;-64
2023/10/18 04:10:58;;;;;;;19.27;18.47;;;7.30;99.90;;;;;;5011951;28;20625;-65
2023/10/18 04:13:25;;;;;;;20.08;19.17;;;7.30;99.90;;;;;;5012322;28;20258;-64
2023/10/18 04:15:59;;;;;;;18.90;18.20;;;7.30;99.90;;;;;;5012397;28;20223;-64
2023/10/18 04:18:29;;;;;;;22.13;21.27;;;7.30;99.90;;;;;;5011791;28;20711;-65
2023/10/18 04:20:59;;;;;;;19.27;18.57;;;7.40;99.90;;;;;;5002867;28;20568;-64
2023/10/18 04:23:26;;;;;;;20.53;19.67;;;7.30;99.90;;;;;;5008398;28;20654;-65
2023/10/18 04:25:58;;;;;;;22.92;22.05;;;7.40;99.90;;;;;;5007918;28;20216;-65
2023/10/18 04:28:25;;;;;;;24.50;23.60;;;7.40;99.90;;;;;;5009245;28;20236;-63
2023/10/18 04:30:52;;;;;;;24.47;23.53;;;7.50;99.90;;;;;;5011287;28;20599;-65
2023/10/18 04:33:28;;;;;;;22.77;21.90;;;7.40;99.90;;;;;;5011762;28;20205;-65
2023/10/18 04:35:55;;;;;;;26.00;25.03;;;7.40;99.90;;;;;;5008013;28;20757;-65
2023/10/18 04:38:29;;;;;;;28.33;27.27;;;7.40;99.90;;;;;;5011888;28;20318;-66
2023/10/18 04:41:04;;;;;;;23.48;22.58;;;7.50;99.90;;;;;;5011564;28;20667;-65
2023/10/18 04:43:33;;;;;;;21.67;20.83;;;7.50;99.90;;;;;;5006809;28;20236;-65
2023/10/18 04:46:07;;;;;;;27.80;26.67;;;7.30;99.90;;;;;;5006743;28;20670;-65
2023/10/18 04:51:26;;;;;;;17.80;17.15;;;7.30;99.90;;;;;;5010743;28;20225;-63
2023/10/18 04:53:54;;;;;;;17.90;17.17;;;7.50;99.90;;;;;;5007315;28;20283;-64
2023/10/18 04:56:29;;;;;;;17.57;16.87;;;7.70;99.90;;;;;;5014485;28;20346;-63
2023/10/18 04:58:59;;;;;;;18.43;17.73;;;7.80;99.90;;;;;;5002595;28;20233;-65
2023/10/18 05:01:33;;;;;;;18.20;17.50;;;7.90;99.90;;;;;;5005227;28;20268;-66
2023/10/18 05:04:00;;;;;;;21.07;20.27;;;7.90;99.90;;;;;;5004325;28;20205;-64
2023/10/18 05:06:29;;;;;;;18.23;17.53;;;7.90;99.90;;;;;;5006327;28;20201;-65
2023/10/18 05:08:56;;;;;;;19.83;19.00;;;7.80;99.90;;;;;;5006615;28;20248;-65
2023/10/18 05:11:23;;;;;;;20.73;19.87;;;7.80;99.90;;;;;;5007387;28;20311;-63
2023/10/18 05:13:50;;;;;;;20.37;19.50;;;7.70;99.90;;;;;;5012095;28;20726;-65
2023/10/18 05:16:17;;;;;;;20.70;19.90;;;7.60;99.90;;;;;;5011541;28;20709;-65
2023/10/18 05:18:45;;;;;;;19.23;18.45;;;7.60;99.90;;;;;;5013060;28;20229;-64
2023/10/18 05:21:20;;;;;;;22.48;21.63;;;7.60;99.90;;;;;;5012461;28;20587;-65
2023/10/18 05:23:49;;;;;;;25.83;24.73;;;7.50;99.90;;;;;;5008899;28;20208;-65
2023/10/18 05:26:18;;;;;;;24.27;23.30;;;7.50;99.90;;;;;;5009194;28;20209;-65
2023/10/18 05:28:49;;;;;;;23.47;22.57;;;7.40;99.90;;;;;;5009432;28;20345;-64
2023/10/18 05:31:43;;;;;;;21.83;20.97;;;7.40;99.90;;;;;;5009774;28;20243;-64
2023/10/18 05:34:19;;;;;;;23.92;22.88;;;7.40;99.90;;;;;;5005262;28;20725;-65
2023/10/18 05:36:56;;;;;;;20.20;19.40;;;7.20;99.90;;;;;;5019842;28;20231;-66
2023/10/18 05:39:28;;;;;;;24.07;23.13;;;6.90;99.90;;;;;;5022981;28;20236;-65
2023/10/18 05:42:03;;;;;;;24.38;23.42;;;7.00;99.90;;;;;;5031070;28;20211;-65
2023/10/18 05:44:30;;;;;;;24.10;23.10;;;6.90;99.90;;;;;;5014892;28;20201;-65
2023/10/18 05:46:57;;;;;;;20.13;19.33;;;6.90;99.90;;;;;;5018813;28;20574;-64
2023/10/18 05:49:25;;;;;;;22.87;21.70;;;6.70;99.90;;;;;;5023322;28;20228;-65
2023/10/18 05:51:52;;;;;;;26.73;25.67;;;6.70;99.90;;;;;;5017370;28;20227;-64
2023/10/18 05:54:21;;;;;;;22.73;21.77;;;6.70;99.90;;;;;;5013302;28;20205;-65
2023/10/18 05:56:49;;;;;;;22.55;21.67;;;6.80;99.90;;;;;;5014675;28;20209;-65
2023/10/18 05:59:33;;;;;;;20.20;19.40;;;6.90;99.90;;;;;;5014814;28;20225;-64
2023/10/18 06:02:02;;;;;;;16.70;16.10;;;7.10;99.90;;;;;;5008537;28;20202;-64
2023/10/18 06:04:37;;;;;;;18.60;17.80;;;7.30;99.90;;;;;;5012446;28;20205;-64
2023/10/18 06:07:09;;;;;;;20.23;19.45;;;7.50;99.90;;;;;;5015853;28;20212;-64
2023/10/18 06:09:44;;;;;;;16.88;16.23;;;7.50;99.90;;;;;;5011536;28;20307;-64
2023/10/18 06:12:13;;;;;;;20.15;19.35;;;7.50;99.90;;;;;;5015133;28;20205;-64
2023/10/18 06:14:44;;;;;;;18.03;17.33;;;7.60;99.90;;;;;;5021090;28;20614;-64
2023/10/18 06:17:13;;;;;;;18.13;17.43;;;7.60;99.90;;;;;;5020789;28;20201;-64
2023/10/18 06:19:45;;;;;;;17.03;16.40;;;7.70;99.90;;;;;;5011194;28;20229;-64
2023/10/18 06:22:23;;;;;;;17.40;16.70;;;7.70;99.90;;;;;;5021500;28;20287;-66
2023/10/18 06:24:51;;;;;;;16.88;16.17;;;7.70;99.90;;;;;;5010645;28;20208;-64
2023/10/18 06:27:18;;;;;;;17.10;16.40;;;7.80;99.90;;;;;;5022249;28;20672;-65
2023/10/18 06:29:49;;;;;;;20.97;20.10;;;7.90;99.90;;;;;;5025975;28;20916;-66
2023/10/18 06:32:16;;;;;;;19.67;18.87;;;7.90;99.90;;;;;;5025059;28;20209;-64
2023/10/18 06:34:44;;;;;;;19.07;18.23;;;7.90;99.90;;;;;;5023377;28;20220;-64
2023/10/18 06:37:20;;;;;;;19.23;18.43;;;8.00;99.90;;;;;;5017325;28;20622;-65
2023/10/18 06:39:49;;;;;;;20.27;19.45;;;8.00;99.90;;;;;;5015780;28;20299;-65
2023/10/18 06:42:17;;;;;;;21.98;20.98;;;8.10;99.90;;;;;;5016003;28;20552;-64
2023/10/18 06:44:45;;;;;;;20.97;20.07;;;8.10;99.90;;;;;;5021499;28;20231;-65
2023/10/18 06:47:14;;;;;;;25.83;24.77;;;8.10;99.90;;;;;;5022067;28;20295;-67
2023/10/18 06:49:42;;;;;;;21.97;21.00;;;8.00;99.90;;;;;;5022110;28;20241;-65
2023/10/18 06:52:09;;;;;;;25.13;24.02;;;8.00;99.90;;;;;;5021185;28;20232;-65
2023/10/18 06:54:39;;;;;;;22.77;21.88;;;7.90;99.90;;;;;;5016382;28;20209;-64
2023/10/18 06:57:15;;;;;;;24.83;23.87;;;7.90;99.90;;;;;;5015875;28;20205;-64
2023/10/18 06:59:44;;;;;;;23.40;22.47;;;7.90;99.90;;;;;;5015519;28;20253;-63
2023/10/18 07:02:13;;;;;;;23.55;22.55;;;7.80;99.90;;;;;;5015640;28;20209;-65
2023/10/18 07:04:46;;;;;;;21.10;20.23;;;7.80;99.90;;;;;;5016894;28;20325;-65
2023/10/18 07:07:13;;;;;;;21.87;21.07;;;7.70;99.90;;;;;;5015966;28;20206;-64
2023/10/18 07:09:42;;;;;;;23.03;22.03;;;7.60;99.90;;;;;;5031503;28;20221;-65
2023/10/18 07:12:12;;;;;;;21.47;20.60;;;7.40;99.90;;;;;;5018578;28;20229;-65
2023/10/18 07:14:38;;;;;;;21.37;20.53;;;7.40;99.90;;;;;;5020233;28;20303;-64
2023/10/18 07:17:09;;;;;;;22.07;21.27;;;7.50;99.90;;;;;;5018437;28;20574;-65
2023/10/18 07:19:47;;;;;;;21.47;20.63;;;7.60;99.90;;;;;;5020628;28;20447;-63
2023/10/18 07:22:18;;;;;;;23.87;22.77;;;7.70;99.90;;;;;;5015306;28;20201;-65
2023/10/18 07:24:47;;;;;;;22.17;21.27;;;7.60;99.90;;;;;;5016085;28;20201;-65
2023/10/18 07:27:15;;;;;;;22.63;21.67;;;7.50;99.90;;;;;;5015659;28;20578;-63
2023/10/18 07:29:46;;;;;;;21.13;20.33;;;7.40;99.90;;;;;;5016178;28;20290;-65
2023/10/18 07:32:13;;;;;;;21.20;20.10;;;7.40;99.90;;;;;;5015289;28;20221;-65
2023/10/18 07:34:42;;;;;;;20.50;19.50;;;7.30;99.90;;;;;;5009996;28;20224;-65
2023/10/18 07:37:19;;;;;;;21.92;21.02;;;7.10;99.90;;;;;;5015559;28;20241;-64
2023/10/18 07:39:48;;;;;;;20.67;19.87;;;7.10;99.90;;;;;;5024352;28;20645;-65
2023/10/18 07:42:18;;;;;;;19.35;18.60;;;7.30;99.90;;;;;;5022614;28;20226;-66
2023/10/18 07:44:46;;;;;;;22.33;21.33;;;7.40;99.90;;;;;;5015508;28;20241;-63
2023/10/18 07:47:18;;;;;;;20.93;20.13;;;7.50;99.90;;;;;;5015110;28;20194;-65
2023/10/18 07:49:46;;;;;;;20.50;19.70;;;7.50;99.90;;;;;;5020249;28;20283;-65
2023/10/18 07:52:13;;;;;;;18.17;17.47;;;7.60;99.90;;;;;;5021148;28;20226;-65
2023/10/18 07:54:40;;;;;;;19.63;18.87;;;7.70;99.90;;;;;;5016078;28;20275;-64
2023/10/18 07:57:15;;;;;;;21.40;20.40;;;7.70;99.90;;;;;;5021250;28;20201;-66
2023/10/18 07:59:45;;;;;;;21.10;20.27;;;7.60;99.90;;;;;;5020863;28;20239;-65
2023/10/18 08:02:14;;;;;;;17.08;16.38;;;7.50;99.90;;;;;;5020525;28;20193;-65
2023/10/18 08:04:42;;;;;;;19.17;18.47;;;7.80;99.90;;;;;;5015293;28;20251;-65
2023/10/18 08:07:15;;;;;;;19.60;18.70;;;8.00;99.90;;;;;;5014325;28;20350;-65
2023/10/18 08:09:42;;;;;;;17.85;17.15;;;8.00;99.90;;;;;;5008471;28;20335;-64
2023/10/18 08:12:19;;;;;;;17.80;17.10;;;8.10;99.90;;;;;;5014055;28;20260;-64
2023/10/18 08:14:47;;;;;;;19.00;18.27;;;8.20;99.90;;;;;;5013979;28;20590;-64
2023/10/18 08:17:29;;;;;;;18.97;18.27;;;8.20;99.90;;;;;;5021439;28;20626;-64
2023/10/18 08:20:17;;;;;;;20.30;19.50;;;8.30;99.90;;;;;;5008655;28;20220;-65
2023/10/18 08:22:45;;;;;;;21.77;20.90;;;8.40;99.90;;;;;;5024065;28;20268;-65
2023/10/18 08:25:23;;;;;;;21.73;20.83;;;8.30;99.90;;;;;;5016711;28;20206;-63
2023/10/18 08:27:51;;;;;;;24.63;23.63;;;8.30;99.90;;;;;;5007902;28;20255;-65
2023/10/18 08:30:24;;;;;;;21.13;20.33;;;8.10;99.90;;;;;;5014084;28;20211;-65
2023/10/18 08:32:51;;;;;;;23.27;22.37;;;8.00;99.90;;;;;;5021002;28;20285;-64
2023/10/18 08:35:20;;;;;;;20.70;19.90;;;8.00;99.90;;;;;;5020600;28;20212;-65
2023/10/18 08:37:48;;;;;;;18.80;18.10;;;8.10;99.90;;;;;;5019099;28;20217;-63
2023/10/18 08:40:27;;;;;;;20.63;19.83;;;8.10;99.90;;;;;;5021009;28;20207;-64
2023/10/18 08:43:06;;;;;;;20.77;19.97;;;8.10;99.90;;;;;;5013519;28;20209;-65
2023/10/18 08:45:36;;;;;;;21.10;20.30;;;8.20;99.90;;;;;;5019363;28;20209;-64
2023/10/18 08:48:10;;;;;;;20.00;19.17;;;8.20;99.90;;;;;;5019532;28;20225;-64
2023/10/18 08:50:40;;;;;;;19.50;18.70;;;8.30;99.90;;;;;;5012773;28;20751;-64
2023/10/18 08:53:09;;;;;;;20.97;20.10;;;8.20;99.90;;;;;;5019740;28;20585;-64
2023/10/18 08:55:45;;;;;;;20.43;19.63;;;8.40;99.90;;;;;;5012529;28;20228;-64
2023/10/18 08:58:17;;;;;;;17.58;16.88;;;8.60;99.90;;;;;;5027064;28;20231;-64
2023/10/18 09:03:29;;;;;;;19.90;19.15;;;8.80;99.90;;;;;;5019865;28;20260;-63
2023/10/18 09:06:04;;;;;;;19.83;19.05;;;8.90;99.90;;;;;;5025926;28;20564;-64
2023/10/18 09:08:35;;;;;;;18.17;17.47;;;9.10;99.90;;;;;;5020096;28;20341;-65
2023/10/18 09:11:04;;;;;;;19.80;19.00;;;9.30;99.90;;;;;;5013092;28;20228;-65
2023/10/18 09:13:41;;;;;;;20.08;19.27;;;9.50;99.90;;;;;;5020415;28;20209;-65
2023/10/18 09:16:11;;;;;;;18.58;17.88;;;9.60;99.90;;;;;;5014054;28;20209;-64
2023/10/18 09:18:38;;;;;;;19.08;18.35;;;9.60;99.90;;;;;;5006240;28;20219;-65
2023/10/18 09:21:09;;;;;;;18.53;17.83;;;9.50;99.90;;;;;;5014290;28;20202;-65
2023/10/18 09:23:40;;;;;;;18.42;17.73;;;9.40;99.90;;;;;;5041708;28;20257;-65
2023/10/18 09:26:10;;;;;;;17.60;16.90;;;9.50;99.90;;;;;;5042944;28;20255;-65
2023/10/18 09:28:37;;;;;;;18.80;18.10;;;9.50;99.90;;;;;;5032491;28;20260;-64
2023/10/18 09:31:09;;;;;;;19.27;18.58;;;9.40;99.90;;;;;;5039903;28;20267;-63
2023/10/18 09:33:38;;;;;;;17.83;17.13;;;9.40;99.90;;;;;;5020591;28;20679;-65
2023/10/18 09:36:18;;;;;;;17.83;17.13;;;9.30;99.90;;;;;;5014664;28;20205;-65
2023/10/18 09:38:47;;;;;;;17.85;17.15;;;9.30;99.90;;;;;;5012999;28;20737;-64
2023/10/18 09:41:14;;;;;;;17.47;16.77;;;9.30;99.90;;;;;;5012767;28;20201;-65
2023/10/18 09:43:40;;;;;;;17.87;17.17;;;9.40;99.90;;;;;;5020036;28;20571;-65
2023/10/18 09:46:10;;;;;;;20.15;19.35;;;9.40;99.90;;;;;;5015317;28;20201;-65
2023/10/18 09:48:41;;;;;;;17.50;16.83;;;9.60;99.90;;;;;;5018704;28;20264;-65
2023/10/18 09:51:08;;;;;;;17.67;16.97;;;9.60;99.90;;;;;;5016445;28;20404;-64
2023/10/18 09:53:41;;;;;;;17.37;16.67;;;9.70;99.90;;;;;;5024124;28;20220;-64
2023/10/18 09:56:12;;;;;;;17.30;16.60;;;9.70;99.90;;;;;;5020989;28;20205;-65
2023/10/18 09:58:43;;;;;;;18.10;17.40;;;9.70;99.90;;;;;;5016503;28;20278;-66
2023/10/18 10:01:14;;;;;;;18.00;17.30;;;9.70;99.90;;;;;;5023218;28;20278;-64
2023/10/18 10:03:50;;;;;;;17.35;16.70;;;9.70;99.90;;;;;;5017662;28;20216;-64
2023/10/18 10:06:20;;;;;;;22.50;21.65;;;9.60;99.90;;;;;;5017130;28;20208;-64
2023/10/18 10:08:51;;;;;;;19.13;18.42;;;9.40;99.90;;;;;;5016914;28;20742;-63
2023/10/18 10:11:20;;;;;;;19.90;19.13;;;9.20;99.90;;;;;;5017273;28;20232;-64
2023/10/18 10:13:50;;;;;;;17.10;16.50;;;9.00;99.90;;;;;;5022847;28;20667;-64
2023/10/18 10:16:24;;;;;;;18.30;17.53;;;9.10;99.90;;;;;;5016873;28;20252;-64
2023/10/18 10:18:52;;;;;;;17.73;17.03;;;9.30;99.90;;;;;;5009898;28;20620;-66
2023/10/18 10:21:23;;;;;;;17.57;16.87;;;9.40;99.90;;;;;;5023893;28;20196;-64
2023/10/18 10:23:55;;;;;;;18.27;17.58;;;9.50;99.90;;;;;;5024065;28;20205;-64
2023/10/18 10:26:28;;;;;;;17.23;16.53;;;9.60;99.90;;;;;;5016653;28;20213;-64
2023/10/18 10:29:34;;;;;;;18.77;18.07;;;9.60;99.90;;;;;;5009823;28;20694;-64
2023/10/18 10:32:04;;;;;;;17.17;16.50;;;9.70;99.90;;;;;;5012364;28;20601;-65
2023/10/18 10:34:36;;;;;;;16.67;16.07;;;9.60;99.90;;;;;;5017440;28;20236;-63
2023/10/18 10:37:11;;;;;;;17.37;16.67;;;9.60;99.90;;;;;;5024585;28;20213;-66
2023/10/18 10:39:44;;;;;;;17.50;16.80;;;9.70;99.90;;;;;;5016501;28;20286;-64
2023/10/18 10:42:27;;;;;;;17.65;17.02;;;9.70;99.90;;;;;;5022314;28;20215;-65
2023/10/18 10:45:02;;;;;;;17.05;16.35;;;9.90;99.90;;;;;;5013891;28;20201;-65
2023/10/18 10:47:30;;;;;;;17.13;16.43;;;10.00;99.90;;;;;;5017361;28;20224;-64
2023/10/18 10:50:07;;;;;;;16.83;16.13;;;9.90;99.90;;;;;;5015296;28;20236;-65
2023/10/18 10:52:38;;;;;;;16.77;16.13;;;9.90;99.90;;;;;;5021933;28;20228;-64
2023/10/18 10:55:20;;;;;;;17.07;16.37;;;9.90;99.90;;;;;;5015414;28;20665;-65
2023/10/18 10:57:50;;;;;;;16.47;15.87;;;9.90;99.90;;;;;;5020953;28;20267;-65
2023/10/18 11:03:30;;;;;;;16.75;16.15;;;9.80;99.90;;;;;;5014960;28;20248;-65
2023/10/18 11:05:58;;;;;;;16.98;16.30;;;9.70;99.90;;;;;;5009626;28;20221;-65
2023/10/18 11:08:29;;;;;;;17.07;16.47;;;9.70;99.90;;;;;;5022737;28;20287;-64
2023/10/18 11:10:57;;;;;;;16.70;16.10;;;9.60;99.90;;;;;;5014544;28;20216;-65
2023/10/18 11:13:26;;;;;;;16.97;16.37;;;9.70;99.90;;;;;;5023133;28;20675;-64
2023/10/18 11:15:53;;;;;;;16.07;15.47;;;9.80;99.90;;;;;;5015989;28;20209;-65
2023/10/18 11:18:34;;;;;;;16.03;15.43;;;9.90;99.90;;;;;;5015831;28;20229;-64
2023/10/18 11:21:11;;;;;;;16.90;16.30;;;10.00;99.90;;;;;;5015347;28;20197;-65
2023/10/18 11:23:38;;;;;;;17.00;16.30;;;10.10;99.90;;;;;;5024641;28;20209;-65
2023/10/18 11:26:09;;;;;;;16.93;16.23;;;10.20;99.90;;;;;;5016983;28;20623;-65
2023/10/18 11:28:38;;;;;;;16.10;15.50;;;10.10;99.90;;;;;;5023659;28;20265;-65
2023/10/18 11:31:07;;;;;;;16.53;15.93;;;10.10;99.90;;;;;;5025225;28;20229;-64
2023/10/18 11:33:46;;;;;;;15.67;15.07;;;10.20;99.90;;;;;;5016240;28;20268;-65
2023/10/18 11:36:18;;;;;;;15.97;15.37;;;10.30;99.90;;;;;;5014810;28;20201;-65
2023/10/18 11:39:07;;;;;;;15.77;15.17;;;10.30;99.90;;;;;;5015049;28;20719;-65
2023/10/18 11:41:35;;;;;;;15.60;15.00;;;10.40;99.90;;;;;;5014856;28;20666;-65
2023/10/18 11:44:06;;;;;;;18.83;18.13;;;10.50;99.90;;;;;;5015676;28;20210;-65
2023/10/18 11:46:47;;;;;;;16.83;16.23;;;10.50;99.90;;;;;;5029518;28;20721;-64
2023/10/18 11:49:14;;;;;;;15.70;15.10;;;10.40;99.90;;;;;;5015265;28;20279;-64
2023/10/18 11:51:43;;;;;;;16.13;15.52;;;10.40;99.90;;;;;;5021519;28;20258;-65
2023/10/18 11:54:12;;;;;;;15.90;15.30;;;10.40;99.90;;;;;;5014549;28;20209;-64
2023/10/18 11:56:39;;;;;;;15.83;15.23;;;10.50;99.90;;;;;;5014601;28;20324;-64
2023/10/18 11:59:07;;;;;;;16.27;15.60;;;10.70;99.90;;;;;;5013902;28;20234;-64
2023/10/18 12:01:34;;;;;;;16.10;15.50;;;10.90;99.90;;;;;;5022728;28;20205;-65
2023/10/18 12:04:01;;;;;;;17.33;16.63;;;11.00;99.90;;;;;;5024611;28;20205;-65
2023/10/18 12:06:28;;;;;;;16.93;16.13;;;11.10;99.90;;;;;;5023866;28;20624;-65
2023/10/18 12:09:25;;;;;;;16.53;15.93;;;11.10;99.90;;;;;;5013571;28;20228;-64
2023/10/18 12:11:52;;;;;;;17.67;16.97;;;11.20;99.90;;;;;;5014376;28;20221;-64
2023/10/18 12:14:22;;;;;;;16.50;15.90;;;11.30;99.90;;;;;;5013811;28;20672;-64
2023/10/18 12:16:49;;;;;;;16.80;16.17;;;11.40;99.90;;;;;;5028301;28;20296;-64
2023/10/18 12:19:16;;;;;;;17.50;16.80;;;11.50;99.90;;;;;;5013573;28;20225;-65
2023/10/18 12:21:48;;;;;;;17.40;16.70;;;11.40;99.90;;;;;;5015171;28;20757;-65
2023/10/18 12:24:15;;;;;;;17.27;16.57;;;11.30;99.90;;;;;;5014308;28;20279;-65
2023/10/18 12:26:45;;;;;;;16.90;16.30;;;11.50;99.90;;;;;;5013980;28;20577;-65
2023/10/18 12:29:15;;;;;;;17.43;16.73;;;11.50;99.90;;;;;;5014567;28;20400;-65
2023/10/18 12:31:52;;;;;;;18.50;17.80;;;11.40;99.90;;;;;;5013703;28;20255;-65
2023/10/18 12:34:21;;;;;;;16.97;16.37;;;11.30;99.90;;;;;;5020796;28;20209;-67
2023/10/18 12:36:49;;;;;;;16.77;16.17;;;11.10;99.90;;;;;;5013071;28;20632;-65
2023/10/18 12:39:20;;;;;;;17.02;16.42;;;11.20;99.90;;;;;;5027642;28;20273;-65
2023/10/18 12:41:52;;;;;;;17.08;16.48;;;11.40;99.90;;;;;;5013943;28;20223;-65
2023/10/18 12:44:19;;;;;;;16.60;16.00;;;11.40;99.90;;;;;;5021757;28;20220;-66
2023/10/18 12:46:50;;;;;;;16.90;16.20;;;11.50;99.90;;;;;;5027422;28;20588;-64
2023/10/18 12:49:22;;;;;;;16.83;16.13;;;11.50;99.90;;;;;;5032567;28;20796;-65
2023/10/18 12:51:57;;;;;;;17.53;16.83;;;11.60;99.90;;;;;;5024139;28;20260;-66
2023/10/18 12:54:29;;;;;;;16.57;15.97;;;11.70;99.90;;;;;;5016161;28;20676;-65
2023/10/18 12:56:57;;;;;;;16.73;16.13;;;11.60;99.90;;;;;;5013858;28;20291;-64
2023/10/18 12:59:24;;;;;;;17.30;16.60;;;11.60;99.90;;;;;;5028461;28;20228;-65
2023/10/18 13:01:58;;;;;;;17.10;16.50;;;11.70;99.90;;;;;;5016740;28;20208;-65
2023/10/18 13:04:24;;;;;;;16.25;15.65;;;11.80;99.90;;;;;;5016182;28;20216;-66